DATCR LFKC-LESU
Flight info
| Callsign | DATCR |
|---|---|
| Flight time | N/A |
| Altitude | 40000 |
| Route | MERLU A3 OMARD DCT EPOLO DCT MEBEL/N0453F410 DCT VATIR DCT BGR DCT MAMUK/N0457F290 L110 LATRO |
| Aircraft | CL60/M-SBDE1E2E3FGHIJ1J4J5J7M3RWXYZ/LB1V1D1 |
Departure
| Time | 2026-04-24 10:38 |
|---|---|
| Airport | Calvi Sainte Catherine Airport (LFKC) |
Arrival
| Time | N/A |
|---|---|
| Airport | Pirineus - la Seu d'Urgel Airport (LESU) |
| Time | Latitude | Longitude | Altitude | Speed | Heading |
|---|---|---|---|---|---|
| 2026-04-24 09:42 | 42.52276 | 8.79135 | 201 ft | 0 kts | 179° |
| 2026-04-24 10:28 | 42.52270 | 8.79138 | 204 ft | 2 kts | 150° |
| 2026-04-24 10:28 | 42.52268 | 8.79140 | 205 ft | 0 kts | 139° |
| 2026-04-24 10:29 | 42.52265 | 8.79146 | 205 ft | 3 kts | 116° |
| 2026-04-24 10:29 | 42.52264 | 8.79148 | 205 ft | 0 kts | 109° |
| 2026-04-24 10:30 | 42.52264 | 8.79159 | 205 ft | 1 kts | 81° |
| 2026-04-24 10:30 | 42.52281 | 8.79176 | 205 ft | 1 kts | 356° |
| 2026-04-24 10:30 | 42.52293 | 8.79163 | 204 ft | 5 kts | 293° |
| 2026-04-24 10:31 | 42.52294 | 8.79153 | 204 ft | 0 kts | 258° |
| 2026-04-24 10:31 | 42.52290 | 8.79138 | 204 ft | 4 kts | 231° |
| 2026-04-24 10:31 | 42.52278 | 8.79130 | 204 ft | 0 kts | 186° |
| 2026-04-24 10:32 | 42.52266 | 8.79135 | 205 ft | 4 kts | 140° |
| 2026-04-24 10:32 | 42.52262 | 8.79142 | 205 ft | 0 kts | 115° |
| 2026-04-24 10:32 | 42.52261 | 8.79144 | 205 ft | 0 kts | 116° |
| 2026-04-24 10:33 | 42.52259 | 8.79149 | 205 ft | 6 kts | 116° |
| 2026-04-24 10:33 | 42.52248 | 8.79182 | 205 ft | 0 kts | 108° |
| 2026-04-24 10:34 | 42.52248 | 8.79183 | 205 ft | 0 kts | 108° |
| 2026-04-24 10:34 | 42.52247 | 8.79186 | 206 ft | 0 kts | 108° |
| 2026-04-24 10:35 | 42.52246 | 8.79189 | 206 ft | 2 kts | 106° |
| 2026-04-24 10:35 | 42.52245 | 8.79195 | 206 ft | 0 kts | 103° |
| 2026-04-24 10:36 | 42.52243 | 8.79230 | 206 ft | 8 kts | 88° |
| 2026-04-24 10:36 | 42.52274 | 8.79304 | 206 ft | 12 kts | 3° |
| 2026-04-24 10:36 | 42.52284 | 8.79304 | 205 ft | 0 kts | 358° |
| 2026-04-24 10:37 | 42.52330 | 8.79302 | 202 ft | 43 kts | 359° |
| 2026-04-24 10:38 | 42.53050 | 8.79298 | 173 ft | 153 kts | 359° |
| 2026-04-24 10:38 | 42.54242 | 8.79248 | 928 ft | 182 kts | 357° |
| 2026-04-24 10:38 | 42.55473 | 8.79230 | 2049 ft | 184 kts | 360° |
| 2026-04-24 10:38 | 42.56753 | 8.79235 | 3190 ft | 196 kts | 0° |
| 2026-04-24 10:39 | 42.58156 | 8.79178 | 4308 ft | 217 kts | 350° |
| 2026-04-24 10:39 | 42.59494 | 8.78181 | 5435 ft | 238 kts | 312° |
| 2026-04-24 10:39 | 42.60450 | 8.76302 | 6577 ft | 257 kts | 303° |
| 2026-04-24 10:39 | 42.61412 | 8.74204 | 7701 ft | 276 kts | 304° |
| 2026-04-24 10:40 | 42.62449 | 8.71961 | 8813 ft | 288 kts | 304° |
| 2026-04-24 10:40 | 42.63518 | 8.69670 | 9933 ft | 292 kts | 305° |
| 2026-04-24 10:40 | 42.64624 | 8.67317 | 11061 ft | 300 kts | 305° |
| 2026-04-24 10:40 | 42.65767 | 8.64911 | 12184 ft | 315 kts | 306° |
| 2026-04-24 10:41 | 42.66986 | 8.62381 | 13316 ft | 327 kts | 306° |
| 2026-04-24 10:41 | 42.68243 | 8.59837 | 14450 ft | 335 kts | 307° |
| 2026-04-24 10:41 | 42.69546 | 8.57225 | 15581 ft | 341 kts | 307° |
| 2026-04-24 10:41 | 42.70875 | 8.54560 | 16696 ft | 344 kts | 307° |
| 2026-04-24 10:42 | 42.72218 | 8.51867 | 17840 ft | 347 kts | 307° |
| 2026-04-24 10:42 | 42.73567 | 8.49157 | 18961 ft | 349 kts | 307° |
| 2026-04-24 10:42 | 42.74457 | 8.47370 | 19714 ft | 349 kts | 307° |
| 2026-04-24 10:42 | 42.76262 | 8.43742 | 21230 ft | 348 kts | 308° |
| 2026-04-24 10:43 | 42.77583 | 8.41084 | 22351 ft | 345 kts | 308° |
| 2026-04-24 10:43 | 42.78907 | 8.38416 | 23490 ft | 340 kts | 309° |
| 2026-04-24 10:43 | 42.80208 | 8.35795 | 24625 ft | 336 kts | 309° |
| 2026-04-24 10:43 | 42.81503 | 8.33184 | 25700 ft | 332 kts | 308° |
| 2026-04-24 10:44 | 42.82748 | 8.30677 | 26496 ft | 336 kts | 308° |
| 2026-04-24 10:44 | 42.84087 | 8.27983 | 26926 ft | 351 kts | 308° |
| 2026-04-24 10:44 | 42.85482 | 8.25174 | 27428 ft | 363 kts | 307° |
| 2026-04-24 10:44 | 42.86938 | 8.22236 | 28001 ft | 372 kts | 307° |
| 2026-04-24 10:45 | 42.87899 | 8.20293 | 28397 ft | 377 kts | 307° |
| 2026-04-24 10:45 | 42.89815 | 8.16418 | 29225 ft | 384 kts | 307° |
| 2026-04-24 10:45 | 42.91296 | 8.13416 | 29885 ft | 387 kts | 307° |
| 2026-04-24 10:45 | 42.92797 | 8.10371 | 30557 ft | 390 kts | 307° |
| 2026-04-24 10:46 | 42.94247 | 8.07427 | 31202 ft | 391 kts | 307° |
| 2026-04-24 10:46 | 42.95772 | 8.04328 | 31862 ft | 392 kts | 307° |
| 2026-04-24 10:46 | 42.96783 | 8.02271 | 32295 ft | 392 kts | 307° |
| 2026-04-24 10:46 | 42.98789 | 7.98186 | 33145 ft | 392 kts | 307° |
| 2026-04-24 10:47 | 43.00287 | 7.95132 | 33754 ft | 391 kts | 307° |
| 2026-04-24 10:47 | 43.01745 | 7.92157 | 34337 ft | 391 kts | 307° |
| 2026-04-24 10:47 | 43.03245 | 7.89091 | 34952 ft | 390 kts | 307° |
| 2026-04-24 10:47 | 43.04753 | 7.86008 | 35556 ft | 388 kts | 307° |
| 2026-04-24 10:48 | 43.06221 | 7.82949 | 36138 ft | 388 kts | 304° |
| 2026-04-24 10:48 | 43.07451 | 7.79691 | 36697 ft | 389 kts | 295° |
| 2026-04-24 10:48 | 43.08071 | 7.77387 | 37045 ft | 389 kts | 289° |
| 2026-04-24 10:48 | 43.08842 | 7.72574 | 37729 ft | 389 kts | 282° |
| 2026-04-24 10:49 | 43.09283 | 7.68936 | 38210 ft | 387 kts | 282° |
| 2026-04-24 10:49 | 43.09725 | 7.65317 | 38672 ft | 385 kts | 282° |
| 2026-04-24 10:49 | 43.10040 | 7.61703 | 39095 ft | 385 kts | 274° |
| 2026-04-24 10:49 | 43.09978 | 7.58064 | 39500 ft | 385 kts | 265° |
| 2026-04-24 10:50 | 43.09519 | 7.54483 | 39876 ft | 385 kts | 257° |
| 2026-04-24 10:50 | 43.08814 | 7.50982 | 40143 ft | 387 kts | 256° |
| 2026-04-24 10:50 | 43.08079 | 7.47416 | 40147 ft | 394 kts | 256° |
| 2026-04-24 10:51 | 43.06561 | 7.40047 | 40134 ft | 409 kts | 256° |
| 2026-04-24 10:51 | 43.04991 | 7.32459 | 40171 ft | 422 kts | 255° |
| 2026-04-24 10:52 | 43.03371 | 7.24657 | 40158 ft | 434 kts | 255° |
| 2026-04-24 10:52 | 43.01697 | 7.16629 | 40152 ft | 446 kts | 255° |
| 2026-04-24 10:53 | 42.99976 | 7.08411 | 40152 ft | 456 kts | 255° |
| 2026-04-24 10:53 | 42.98218 | 7.00046 | 40161 ft | 464 kts | 255° |
| 2026-04-24 10:54 | 42.96425 | 6.91557 | 40144 ft | 469 kts | 255° |
| 2026-04-24 10:54 | 42.95247 | 6.85997 | 40152 ft | 469 kts | 255° |
| 2026-04-24 10:55 | 42.93676 | 6.78602 | 40153 ft | 469 kts | 255° |
| 2026-04-24 10:55 | 42.91855 | 6.70067 | 40157 ft | 467 kts | 255° |
| 2026-04-24 10:56 | 42.90041 | 6.61602 | 40148 ft | 466 kts | 255° |
| 2026-04-24 10:56 | 42.88169 | 6.53163 | 40155 ft | 466 kts | 251° |
| 2026-04-24 10:57 | 42.86058 | 6.46452 | 40151 ft | 466 kts | 247° |
| 2026-04-24 10:57 | 42.83002 | 6.37014 | 40147 ft | 466 kts | 248° |
| 2026-04-24 10:58 | 42.80392 | 6.28974 | 40163 ft | 466 kts | 247° |
| 2026-04-24 10:58 | 42.77783 | 6.20958 | 40146 ft | 466 kts | 247° |
| 2026-04-24 10:59 | 42.75163 | 6.12930 | 40139 ft | 465 kts | 247° |
| 2026-04-24 10:59 | 42.72529 | 6.04879 | 40148 ft | 465 kts | 247° |
| 2026-04-24 11:00 | 42.69908 | 5.96894 | 40159 ft | 465 kts | 247° |
| 2026-04-24 11:00 | 42.67274 | 5.88887 | 40140 ft | 465 kts | 247° |
| 2026-04-24 11:01 | 42.64629 | 5.80872 | 40139 ft | 465 kts | 247° |
| 2026-04-24 11:01 | 42.62000 | 5.72930 | 40150 ft | 464 kts | 247° |
| 2026-04-24 11:02 | 42.59366 | 5.64996 | 40153 ft | 463 kts | 248° |
| 2026-04-24 11:02 | 42.56716 | 5.57035 | 40156 ft | 464 kts | 248° |
| 2026-04-24 11:03 | 42.54064 | 5.49091 | 40153 ft | 464 kts | 248° |
| 2026-04-24 11:03 | 42.51402 | 5.41141 | 40155 ft | 463 kts | 248° |
| 2026-04-24 11:04 | 42.48818 | 5.33205 | 40170 ft | 462 kts | 251° |
| 2026-04-24 11:04 | 42.46736 | 5.25010 | 40159 ft | 461 kts | 253° |
| 2026-04-24 11:05 | 42.44654 | 5.16796 | 40168 ft | 461 kts | 253° |
| 2026-04-24 11:05 | 42.42574 | 5.08630 | 40160 ft | 460 kts | 253° |
| 2026-04-24 11:06 | 42.40502 | 5.00528 | 40169 ft | 459 kts | 253° |
| 2026-04-24 11:06 | 42.38409 | 4.92380 | 40169 ft | 459 kts | 253° |
| 2026-04-24 11:07 | 42.35269 | 4.80210 | 40169 ft | 458 kts | 253° |
| 2026-04-24 11:07 | 42.33163 | 4.72088 | 40167 ft | 457 kts | 253° |
| 2026-04-24 11:08 | 42.31066 | 4.64029 | 40165 ft | 457 kts | 253° |
| 2026-04-24 11:08 | 42.28953 | 4.55935 | 40146 ft | 457 kts | 253° |
| 2026-04-24 11:09 | 42.26834 | 4.47850 | 40158 ft | 457 kts | 253° |
| 2026-04-24 11:09 | 42.24717 | 4.39800 | 40165 ft | 456 kts | 253° |
| 2026-04-24 11:10 | 42.22609 | 4.31808 | 40152 ft | 456 kts | 252° |
| 2026-04-24 11:10 | 42.20478 | 4.23761 | 40151 ft | 455 kts | 253° |
| 2026-04-24 11:11 | 42.18702 | 4.17071 | 40146 ft | 455 kts | 253° |
| 2026-04-24 11:11 | 42.16298 | 4.07727 | 40140 ft | 453 kts | 255° |
| 2026-04-24 11:12 | 42.14347 | 3.99713 | 40129 ft | 452 kts | 254° |
| 2026-04-24 11:12 | 42.12384 | 3.91682 | 40133 ft | 452 kts | 254° |
| 2026-04-24 11:13 | 42.10419 | 3.83672 | 40126 ft | 452 kts | 254° |
| 2026-04-24 11:13 | 42.08448 | 3.75666 | 40129 ft | 452 kts | 254° |
| 2026-04-24 11:14 | 42.06465 | 3.67635 | 39871 ft | 451 kts | 254° |
| 2026-04-24 11:14 | 42.05489 | 3.63698 | 39390 ft | 444 kts | 254° |
| 2026-04-24 11:14 | 42.04517 | 3.59787 | 38927 ft | 438 kts | 254° |
| 2026-04-24 11:15 | 42.03558 | 3.55930 | 38464 ft | 432 kts | 254° |
| 2026-04-24 11:15 | 42.02615 | 3.52137 | 38014 ft | 430 kts | 254° |
| 2026-04-24 11:15 | 42.01657 | 3.48296 | 37571 ft | 430 kts | 254° |
| 2026-04-24 11:15 | 42.00712 | 3.44511 | 37083 ft | 430 kts | 254° |
| 2026-04-24 11:16 | 41.99771 | 3.40749 | 36641 ft | 430 kts | 254° |
| 2026-04-24 11:16 | 41.98810 | 3.36912 | 36146 ft | 430 kts | 255° |
| 2026-04-24 11:16 | 41.97860 | 3.33127 | 35666 ft | 429 kts | 254° |
| 2026-04-24 11:16 | 41.96917 | 3.29375 | 35219 ft | 426 kts | 254° |
| 2026-04-24 11:17 | 41.96314 | 3.26980 | 34912 ft | 424 kts | 254° |
| 2026-04-24 11:17 | 41.95380 | 3.23269 | 34448 ft | 421 kts | 255° |
| 2026-04-24 11:17 | 41.94511 | 3.18230 | 33799 ft | 413 kts | 265° |
| 2026-04-24 11:17 | 41.94161 | 3.14423 | 33338 ft | 408 kts | 265° |
| 2026-04-24 11:18 | 41.93819 | 3.10712 | 32897 ft | 405 kts | 265° |
| 2026-04-24 11:18 | 41.93471 | 3.06975 | 32457 ft | 402 kts | 265° |
| 2026-04-24 11:18 | 41.93125 | 3.03279 | 32015 ft | 400 kts | 265° |
| 2026-04-24 11:18 | 41.92777 | 2.99566 | 31577 ft | 398 kts | 265° |
| 2026-04-24 11:19 | 41.92545 | 2.97106 | 31280 ft | 397 kts | 265° |
| 2026-04-24 11:19 | 41.92087 | 2.92263 | 30709 ft | 393 kts | 265° |
| 2026-04-24 11:19 | 41.91861 | 2.89878 | 30422 ft | 391 kts | 265° |
| 2026-04-24 11:19 | 41.91514 | 2.86239 | 29990 ft | 388 kts | 265° |
| 2026-04-24 11:20 | 41.91069 | 2.81585 | 29437 ft | 385 kts | 265° |
| 2026-04-24 11:20 | 41.90728 | 2.78031 | 29012 ft | 382 kts | 265° |
| 2026-04-24 11:20 | 41.90389 | 2.74519 | 28591 ft | 380 kts | 265° |
| 2026-04-24 11:20 | 41.90051 | 2.71027 | 28177 ft | 377 kts | 265° |
| 2026-04-24 11:21 | 41.89714 | 2.67553 | 27760 ft | 375 kts | 265° |
| 2026-04-24 11:21 | 41.89379 | 2.64110 | 27356 ft | 373 kts | 265° |
| 2026-04-24 11:21 | 41.89047 | 2.60708 | 26949 ft | 371 kts | 265° |
| 2026-04-24 11:21 | 41.88823 | 2.58424 | 26674 ft | 369 kts | 265° |
| 2026-04-24 11:22 | 41.88377 | 2.53886 | 26135 ft | 366 kts | 265° |
| 2026-04-24 11:22 | 41.88046 | 2.50533 | 25738 ft | 364 kts | 265° |
| 2026-04-24 11:22 | 41.87714 | 2.47179 | 25330 ft | 362 kts | 265° |
| 2026-04-24 11:22 | 41.87385 | 2.43862 | 24935 ft | 359 kts | 265° |
| 2026-04-24 11:23 | 41.87058 | 2.40570 | 24538 ft | 357 kts | 265° |
| 2026-04-24 11:23 | 41.86729 | 2.37285 | 24147 ft | 355 kts | 265° |
| 2026-04-24 11:23 | 41.86509 | 2.35090 | 23879 ft | 354 kts | 265° |
| 2026-04-24 11:23 | 41.86073 | 2.30745 | 23363 ft | 352 kts | 264° |
| 2026-04-24 11:24 | 41.85857 | 2.28594 | 23105 ft | 350 kts | 264° |
| 2026-04-24 11:24 | 41.85421 | 2.24287 | 22593 ft | 348 kts | 264° |
| 2026-04-24 11:24 | 41.85101 | 2.21121 | 22202 ft | 346 kts | 264° |
| 2026-04-24 11:24 | 41.84775 | 2.17922 | 21838 ft | 344 kts | 264° |
| 2026-04-24 11:25 | 41.84559 | 2.15800 | 21575 ft | 343 kts | 264° |
| 2026-04-24 11:25 | 41.84131 | 2.11607 | 21080 ft | 340 kts | 264° |
| 2026-04-24 11:25 | 41.83812 | 2.08502 | 20704 ft | 338 kts | 263° |
| 2026-04-24 11:25 | 41.83559 | 2.06440 | 20461 ft | 337 kts | 261° |
| 2026-04-24 11:26 | 41.83123 | 2.03348 | 20076 ft | 336 kts | 261° |
| 2026-04-24 11:26 | 41.82547 | 1.99284 | 19582 ft | 333 kts | 261° |
| 2026-04-24 11:26 | 41.82114 | 1.96230 | 19209 ft | 331 kts | 261° |
| 2026-04-24 11:26 | 41.81686 | 1.93223 | 18855 ft | 329 kts | 261° |
| 2026-04-24 11:27 | 41.81402 | 1.91233 | 18607 ft | 328 kts | 261° |
| 2026-04-24 11:27 | 41.80976 | 1.88246 | 18258 ft | 326 kts | 261° |
| 2026-04-24 11:27 | 41.80406 | 1.84269 | 17780 ft | 324 kts | 261° |
| 2026-04-24 11:27 | 41.79984 | 1.81325 | 17404 ft | 322 kts | 261° |
| 2026-04-24 11:28 | 41.79701 | 1.79361 | 17177 ft | 320 kts | 261° |
| 2026-04-24 11:28 | 41.79144 | 1.75495 | 16707 ft | 318 kts | 261° |
| 2026-04-24 11:28 | 41.78866 | 1.73568 | 16463 ft | 317 kts | 261° |
| 2026-04-24 11:28 | 41.78449 | 1.70686 | 16137 ft | 315 kts | 261° |
| 2026-04-24 11:29 | 41.78032 | 1.67810 | 15768 ft | 312 kts | 261° |
| 2026-04-24 11:29 | 41.77517 | 1.64052 | 15338 ft | 308 kts | 266° |
| 2026-04-24 11:29 | 41.77526 | 1.62141 | 15079 ft | 305 kts | 280° |
| 2026-04-24 11:29 | 41.78174 | 1.59501 | 14739 ft | 299 kts | 298° |
| 2026-04-24 11:30 | 41.79208 | 1.57072 | 14389 ft | 298 kts | 301° |
| 2026-04-24 11:30 | 41.80577 | 1.53891 | 13967 ft | 296 kts | 301° |
| 2026-04-24 11:30 | 41.81250 | 1.52323 | 13725 ft | 294 kts | 301° |
| 2026-04-24 11:30 | 41.82264 | 1.49958 | 13440 ft | 292 kts | 300° |
| 2026-04-24 11:31 | 41.83274 | 1.47599 | 13101 ft | 290 kts | 300° |
| 2026-04-24 11:31 | 41.84589 | 1.44525 | 12676 ft | 283 kts | 300° |
| 2026-04-24 11:31 | 41.85246 | 1.42988 | 12470 ft | 279 kts | 300° |
| 2026-04-24 11:31 | 41.86201 | 1.40751 | 12164 ft | 273 kts | 300° |
| 2026-04-24 11:32 | 41.87437 | 1.37854 | 11775 ft | 266 kts | 300° |
| 2026-04-24 11:32 | 41.88043 | 1.36434 | 11574 ft | 264 kts | 300° |
| 2026-04-24 11:32 | 41.88946 | 1.34314 | 11280 ft | 259 kts | 299° |
| 2026-04-24 11:32 | 41.89839 | 1.32217 | 11009 ft | 254 kts | 300° |
| 2026-04-24 11:33 | 41.90705 | 1.30180 | 10715 ft | 251 kts | 300° |
| 2026-04-24 11:33 | 41.91558 | 1.28173 | 10465 ft | 246 kts | 300° |
| 2026-04-24 11:33 | 41.92406 | 1.26204 | 10173 ft | 244 kts | 303° |
| 2026-04-24 11:33 | 41.93565 | 1.24600 | 9891 ft | 244 kts | 326° |
| 2026-04-24 11:34 | 41.95173 | 1.23812 | 9599 ft | 246 kts | 353° |
| 2026-04-24 11:34 | 41.96876 | 1.23854 | 9284 ft | 248 kts | 2° |
| 2026-04-24 11:34 | 41.99163 | 1.24069 | 8930 ft | 245 kts | 2° |
| 2026-04-24 11:34 | 42.00297 | 1.24171 | 8741 ft | 245 kts | 2° |
| 2026-04-24 11:35 | 42.01953 | 1.24320 | 8485 ft | 232 kts | 2° |
| 2026-04-24 11:35 | 42.03511 | 1.24461 | 8240 ft | 218 kts | 2° |
| 2026-04-24 11:35 | 42.04998 | 1.24594 | 7996 ft | 207 kts | 2° |
| 2026-04-24 11:35 | 42.06390 | 1.24719 | 7777 ft | 197 kts | 2° |
| 2026-04-24 11:36 | 42.08225 | 1.24890 | 7493 ft | 196 kts | 5° |
| 2026-04-24 11:36 | 42.09514 | 1.25430 | 7450 ft | 196 kts | 24° |
| 2026-04-24 11:36 | 42.10315 | 1.25956 | 7447 ft | 189 kts | 25° |
| 2026-04-24 11:36 | 42.11487 | 1.26712 | 7461 ft | 181 kts | 24° |
| 2026-04-24 11:37 | 42.12616 | 1.27416 | 7444 ft | 178 kts | 24° |
| 2026-04-24 11:37 | 42.13724 | 1.28102 | 7415 ft | 167 kts | 24° |
| 2026-04-24 11:37 | 42.14735 | 1.28730 | 7439 ft | 158 kts | 24° |
| 2026-04-24 11:37 | 42.15705 | 1.29331 | 7459 ft | 147 kts | 24° |
| 2026-04-24 11:38 | 42.16917 | 1.30082 | 7440 ft | 140 kts | 23° |
| 2026-04-24 11:38 | 42.17790 | 1.30622 | 7446 ft | 138 kts | 23° |
| 2026-04-24 11:38 | 42.18374 | 1.30984 | 7455 ft | 138 kts | 23° |
| 2026-04-24 11:38 | 42.19271 | 1.31540 | 7252 ft | 143 kts | 23° |
| 2026-04-24 11:39 | 42.20142 | 1.32082 | 6995 ft | 137 kts | 23° |
| 2026-04-24 11:39 | 42.21021 | 1.32628 | 6748 ft | 138 kts | 24° |
| 2026-04-24 11:39 | 42.21890 | 1.33168 | 6328 ft | 144 kts | 24° |
| 2026-04-24 11:39 | 42.22771 | 1.33716 | 6016 ft | 129 kts | 24° |
| 2026-04-24 11:40 | 42.23619 | 1.34238 | 5898 ft | 132 kts | 24° |
| 2026-04-24 11:40 | 42.24463 | 1.34679 | 5555 ft | 133 kts | 18° |
| 2026-04-24 11:40 | 42.25352 | 1.35092 | 5252 ft | 138 kts | 20° |
| 2026-04-24 11:40 | 42.26241 | 1.35550 | 5011 ft | 136 kts | 21° |
| 2026-04-24 11:41 | 42.27126 | 1.36014 | 4713 ft | 138 kts | 23° |
| 2026-04-24 11:41 | 42.28021 | 1.36490 | 4471 ft | 141 kts | 20° |
| 2026-04-24 11:41 | 42.28910 | 1.36984 | 4217 ft | 137 kts | 24° |
| 2026-04-24 11:41 | 42.29784 | 1.37553 | 3945 ft | 141 kts | 28° |
| 2026-04-24 11:42 | 42.30622 | 1.38221 | 3706 ft | 139 kts | 31° |
| 2026-04-24 11:42 | 42.31443 | 1.38886 | 3407 ft | 139 kts | 29° |
| 2026-04-24 11:42 | 42.32260 | 1.39574 | 3149 ft | 136 kts | 34° |
| 2026-04-24 11:42 | 42.33079 | 1.40233 | 2868 ft | 136 kts | 30° |
| 2026-04-24 11:43 | 42.33875 | 1.40875 | 2660 ft | 128 kts | 29° |
| 2026-04-24 11:43 | 42.34647 | 1.41482 | 2824 ft | 149 kts | 28° |
| 2026-04-24 11:43 | 42.35468 | 1.42299 | 3602 ft | 146 kts | 52° |
| 2026-04-24 11:43 | 42.35813 | 1.43560 | 4137 ft | 147 kts | 83° |
| 2026-04-24 11:44 | 42.35696 | 1.45092 | 4486 ft | 185 kts | 109° |
| 2026-04-24 11:44 | 42.34927 | 1.46572 | 4768 ft | 196 kts | 142° |
| 2026-04-24 11:44 | 42.33755 | 1.47335 | 5052 ft | 192 kts | 171° |
| 2026-04-24 11:44 | 42.31907 | 1.47469 | 5136 ft | 201 kts | 179° |
| 2026-04-24 11:45 | 42.30983 | 1.47268 | 5295 ft | 200 kts | 199° |
| 2026-04-24 11:45 | 42.29794 | 1.46310 | 5380 ft | 206 kts | 224° |
| 2026-04-24 11:45 | 42.28940 | 1.44824 | 5335 ft | 191 kts | 235° |
| 2026-04-24 11:45 | 42.28216 | 1.43331 | 5034 ft | 195 kts | 237° |
| 2026-04-24 11:46 | 42.27562 | 1.41746 | 4892 ft | 179 kts | 248° |
| 2026-04-24 11:46 | 42.27525 | 1.40250 | 4807 ft | 151 kts | 286° |
| 2026-04-24 11:46 | 42.28139 | 1.39117 | 4431 ft | 154 kts | 318° |
| 2026-04-24 11:46 | 42.29435 | 1.38358 | 3922 ft | 150 kts | 349° |
| 2026-04-24 11:47 | 42.30126 | 1.38275 | 3780 ft | 144 kts | 356° |
| 2026-04-24 11:47 | 42.31091 | 1.38522 | 3436 ft | 146 kts | 28° |
| 2026-04-24 11:47 | 42.31895 | 1.39262 | 3186 ft | 137 kts | 36° |
| 2026-04-24 11:47 | 42.32976 | 1.40152 | 2895 ft | 135 kts | 29° |
| 2026-04-24 11:48 | 42.33521 | 1.40589 | 2738 ft | 135 kts | 30° |
| 2026-04-24 11:48 | 42.34278 | 1.41206 | 2678 ft | 130 kts | 28° |
| 2026-04-24 11:48 | 42.34989 | 1.42109 | 3181 ft | 155 kts | 89° |
| 2026-04-24 11:48 | 42.34164 | 1.42827 | 3389 ft | 177 kts | 193° |
| 2026-04-24 11:49 | 42.33157 | 1.42021 | 3327 ft | 162 kts | 210° |
| 2026-04-24 11:49 | 42.32271 | 1.41183 | 3131 ft | 140 kts | 215° |
| 2026-04-24 11:49 | 42.31834 | 1.40134 | 2939 ft | 146 kts | 274° |
| 2026-04-24 11:49 | 42.32525 | 1.39299 | 2619 ft | 141 kts | 8° |
| 2026-04-24 11:50 | 42.33223 | 1.40090 | 2719 ft | 130 kts | 49° |
| 2026-04-24 11:50 | 42.33831 | 1.40838 | 2658 ft | 109 kts | 31° |